ADDS METAR Data INFO
IDs: Format: Raw Decoded Include TAF

Data at: 2210 UTC 24 Jun 2018

KJSV 242155Z AUTO 27018KT 7SM +RA SCT007 SCT014 BKN038 24/20 A2997 RMK AO2 LTG LTG DSNT ALQS
KJSV 242135Z AUTO 34003KT 10SM -TSRA BKN038 OVC047 25/19 A2992 RMK AO2 LTG DSNT ALQS
KJSV 242115Z AUTO 36003KT 10SM -RA BKN032 OVC039 25/19 A2994 RMK AO2 LTG LTG DSNT ALQS
KJSV 242055Z AUTO 34009KT 10SM OVC032 25/18 A2994 RMK AO2
KJSV 242035Z AUTO 35008G16KT 10SM BKN030 OVC035 25/19 A2995 RMK AO2 LTG DSNT W
KJSV 242015Z AUTO 35011G14KT 10SM BKN030 BKN036 BKN050 26/20 A2995 RMK AO2
KJSV 241955Z AUTO 35005KT 10SM SCT040 SCT050 28/20 A2994 RMK AO2
KJSV 241935Z AUTO 02003KT 10SM SCT049 30/21 A2992 RMK AO2
KJSV 241915Z AUTO 00000KT 10SM SCT049 29/20 A2991 RMK AO2
KJSV 241855Z AUTO 34006KT 10SM SCT049 29/20 A2991 RMK AO2 P0001
KJSV 241835Z AUTO 22007KT 10SM CLR 28/21 A2990 RMK AO2
KJSV 241815Z AUTO 25006KT 10SM CLR 27/21 A2990 RMK AO2
KJSV 241755Z AUTO 24006G14KT 10SM CLR 27/25 A2988 RMK AO2
KJSV 241735Z AUTO 20009G14KT 10SM CLR 25/23 A2989 RMK AO2
KJSV 241715Z AUTO 25007KT 10SM CLR 23/22 A2992 RMK AO2
KJSV 241655Z AUTO 21009KT 10SM CLR 23/22 A2991 RMK AO2 P0001
KJSV 241635Z AUTO 20006KT 10SM CLR 23/22 A2992 RMK AO2
KJSV 241615Z AUTO 20012G16KT 10SM CLR 22/21 A2990 RMK AO2
KJSV 241555Z AUTO 22012G15KT 205V355 10SM CLR 22/21 A2989 RMK AO2
KJSV 241535Z AUTO 20008KT 10SM SCT011 21/20 A2986 RMK AO2
KJSV 241515Z AUTO 18006KT 10SM -RA SCT011 21/20 A2985 RMK AO2 LTG LTG DSNT SE
KJSV 241455Z AUTO 17004KT 10SM -RA BKN013 21/20 A2987 RMK AO2 LTG LTG DSNT SE AND S
KJSV 241435Z AUTO 18003KT 10SM -RA SCT011 20/19 A2987 RMK AO2 LTG LTG DSNT NE AND S
KJSV 241415Z AUTO 26006KT 10SM -RA SCT011 20/19 A2989 RMK AO2 LTG LTG DSNT ALQS
KJSV 241355Z AUTO 15007G18KT 10SM -RA SCT007 SCT012 SCT019 20/18 A2981 RMK AO2 P0001 LTG LTG DSNT NE THRU SE
KJSV 241335Z AUTO 11007G16KT 10SM -RA BKN007 OVC012 20/18 A2978 RMK AO2 P0001 LTG LTG DSNT NE THRU S
KJSV 241315Z AUTO 16012G16KT 10SM -RA SCT007 BKN013 OVC022 20/18 A2985 RMK AO2 LTG LTG DSNT NE THRU S
KJSV 241255Z AUTO 12005KT 10SM VCTSRA SCT004 BKN012 BKN020 20/18 A2984 RMK AO2 P0001 LTG DSNT ALQS
KJSV 241235Z AUTO 08007KT 10SM -TSRA SCT006 SCT012 BKN018 20/18 A2984 RMK AO2 P0001 LTG DSNT ALQS
KJSV 241215Z AUTO 10004KT 10SM -TSRA SCT004 BKN008 20/18 A2984 RMK AO2 LTG DSNT ALQS
KJSV 241155Z AUTO 30014G48KT 1SM +VCTSRA OVC002 21/18 A2990 RMK AO2 P0001 LTG DSNT ALQS
KJSV 241135Z AUTO 16011G16KT 10SM -VCTSRA SCT070 BKN090 22/20 A2981 RMK AO2 P0001 LTG DSNT ALQS
KJSV 241115Z AUTO 15010G15KT 10SM -VCTSRA SCT010 SCT035 BKN100 22/20 A2978 RMK AO2 P0001 LTG DSNT ALQS
KJSV 241055Z AUTO 15010G15KT 3SM +TSRA SCT006 BKN010 OVC014 23/21 A2978 RMK AO2 LTG DSNT ALQS
KJSV 241035Z AUTO 32003KT 7SM +TSRA SCT012 BKN019 BKN040 23/21 A2985 RMK AO2 LTG DSNT ALQS
KJSV 241015Z AUTO 00000KT 10SM -TSRA SCT006 SCT039 23/21 A2985 RMK AO2 LTG DSNT ALQS
KJSV 240955Z AUTO 04007KT 7SM TSRA SCT006 BKN013 23/20 A2981 RMK AO2 P0001 LTG DSNT ALQS
KJSV 240935Z AUTO 10004KT 10SM TSRA SCT006 SCT010 SCT050 25/21 A2981 RMK AO2 P0001 LTG DSNT ALQS
KJSV 240915Z AUTO 08004KT 10SM -TSRA SCT055 25/21 A2980 RMK AO2 LTG DSNT ALQS
KJSV 240855Z AUTO 08006KT 10SM SCT055 SCT110 25/21 A2982 RMK AO2 LTG DSNT ALQS
KJSV 240835Z AUTO 08004KT 10SM CLR 24/21 A2982 RMK AO2 LTG DSNT SW AND W
KJSV 240815Z AUTO 00000KT 10SM CLR 25/21 A2981 RMK AO2 LTG DSNT SW AND W
KJSV 240755Z AUTO 09004KT 10SM CLR 25/21 A2982 RMK AO2 LTG DSNT W
KJSV 240735Z AUTO 06004KT 10SM CLR 25/21 A2981 RMK AO2 LTG DSNT NW
KJSV 240715Z AUTO 08005KT 10SM CLR 25/21 A2982 RMK AO2 LTG DSNT SW THRU N
KJSV 240655Z AUTO 07005KT 10SM SCT060 25/21 A2983 RMK AO2 LTG DSNT SW THRU NW
KJSV 240635Z AUTO 06005KT 10SM BKN050 25/21 A2983 RMK AO2 LTG DSNT NW
KJSV 240615Z AUTO 06004KT 10SM SCT050 25/21 A2983 RMK AO2 LTG DSNT W AND NW
KJSV 240555Z AUTO 09004KT 10SM SCT047 SCT100 25/21 A2983 RMK AO2 LTG DSNT W
KJSV 240535Z AUTO 09004KT 10SM SCT047 25/21 A2983 RMK AO2 LTG DSNT W
KJSV 240515Z AUTO 07003KT 10SM SCT047 25/21 A2982 RMK AO2 LTG DSNT W
KJSV 240455Z AUTO 08005KT 10SM SCT047 24/21 A2982 RMK AO2 LTG DSNT W
KJSV 240435Z AUTO 09003KT 10SM CLR 25/20 A2982 RMK AO2
KJSV 240415Z AUTO 00000KT 10SM CLR 25/20 A2982 RMK AO2
KJSV 240355Z AUTO 00000KT 10SM CLR 25/20 A2982 RMK AO2
KJSV 240335Z AUTO 00000KT 10SM CLR 25/20 A2982 RMK AO2
KJSV 240315Z AUTO 09003KT 10SM CLR 25/20 A2982 RMK AO2
KJSV 240255Z AUTO 00000KT 10SM CLR 25/20 A2981 RMK AO2
KJSV 240235Z AUTO 00000KT 10SM CLR 26/20 A2981 RMK AO2
KJSV 240215Z AUTO 00000KT 10SM CLR 26/19 A2980 RMK AO2
KJSV 240155Z AUTO 00000KT 10SM CLR 28/20 A2980 RMK AO2
KJSV 240135Z AUTO 00000KT 10SM CLR 30/20 A2980 RMK AO2
KJSV 240115Z AUTO 00000KT 10SM CLR 31/21 A2980 RMK AO2
KJSV 240055Z AUTO 00000KT 10SM CLR 32/21 A2980 RMK AO2
KJSV 240035Z AUTO 00000KT 10SM CLR 33/21 A2980 RMK AO2
KJSV 240015Z AUTO 00000KT 10SM CLR 34/21 A2980 RMK AO2
KJSV 232355Z AUTO 00000KT 10SM CLR 34/21 A2979 RMK AO2
KJSV 232335Z AUTO 00000KT 10SM CLR 34/21 A2979 RMK AO2
KJSV 232315Z AUTO 00000KT 10SM CLR 33/20 A2980 RMK AO2
KJSV 232255Z AUTO 00000KT 10SM CLR 33/20 A2980 RMK AO2
KJSV 232235Z AUTO 26003KT 10SM CLR 32/20 A2981 RMK AO2
KJSV 232215Z AUTO 00000KT 10SM CLR 32/19 A2982 RMK AO2
KJSV 232155Z AUTO 00000KT 10SM CLR 31/20 A2982 RMK AO2
KJSV 232135Z AUTO 35005KT 10SM CLR 31/20 A2981 RMK AO2
KJSV 232115Z AUTO 30005KT 10SM CLR 31/20 A2982 RMK AO2
KJSV 232055Z AUTO 31007KT 10SM CLR 30/20 A2982 RMK AO2
KJSV 232035Z AUTO 27009KT 10SM CLR 30/20 A2983 RMK AO2
KJSV 232015Z AUTO 27005KT 10SM CLR 29/20 A2982 RMK AO2
KJSV 231955Z AUTO 32009KT 10SM CLR 28/20 A2983 RMK AO2
KJSV 231935Z AUTO 31007KT 10SM CLR 27/20 A2983 RMK AO2
KJSV 231915Z AUTO 30008KT 10SM CLR 26/20 A2983 RMK AO2
KJSV 231855Z AUTO 30007KT 10SM SCT023 25/19 A2984 RMK AO2
KJSV 231835Z AUTO 30003KT 10SM CLR 25/19 A2983 RMK AO2
KJSV 231815Z AUTO 31006KT 10SM CLR 25/19 A2984 RMK AO2
KJSV 231755Z AUTO 00000KT 10SM CLR 25/19 A2983 RMK AO2
KJSV 231735Z AUTO 30009KT 10SM CLR 25/19 A2984 RMK AO2
KJSV 231715Z AUTO 28004KT 10SM CLR 25/20 A2982 RMK AO2
KJSV 231655Z AUTO 29003KT 10SM CLR 25/20 A2982 RMK AO2
KJSV 231635Z AUTO 27004KT 10SM CLR 24/19 A2982 RMK AO2
KJSV 231615Z AUTO 26003KT 10SM CLR 24/20 A2983 RMK AO2
KJSV 231555Z AUTO 22004KT 10SM CLR 23/19 A2982 RMK AO2
KJSV 231535Z AUTO 24010KT 10SM CLR 23/21 A2984 RMK AO2
KJSV 231515Z AUTO 21009KT 10SM CLR 22/21 A2983 RMK AO2
KJSV 231455Z AUTO 21005KT 10SM CLR 22/20 A2987 RMK AO2 P0001
KJSV 231435Z AUTO 00000KT 10SM CLR 21/20 A2986 RMK AO2 P0001 LTG DSNT SW
KJSV 231415Z AUTO 00000KT 10SM CLR 21/19 A2985 RMK AO2 P0001 LTG DSNT S
KJSV 231355Z AUTO 35005KT 10SM CLR 21/19 A2984 RMK AO2 LTG DSNT S
KJSV 231340Z AUTO 04005KT 10SM -DZ CLR 21/19 A2980 RMK AO2 LTG LTG DSNT SW
KJSV 231315Z AUTO 00000KT 10SM -RA SCT007 SCT020 SCT034 21/19 A2980 RMK AO2
KJSV 231255Z AUTO 14006KT 10SM -VCTSRA SCT009 SCT022 21/19 A2978 RMK AO2 P0001
KJSV 231235Z AUTO 14003KT 10SM CLR 21/19 A2979 RMK AO2 LTG DSNT SW
KJSV 231215Z AUTO 25005KT 10SM CLR 21/19 A2981 RMK AO2 LTG DSNT S AND SW
KJSV 231155Z AUTO 29003KT 10SM CLR 21/18 A2978 RMK AO2 P0002 LTG DSNT SW
KJSV 231135Z AUTO 34003KT 10SM CLR 21/18 A2977 RMK AO2 P0001 LTG DSNT SW
KJSV 231115Z AUTO 03003KT 10SM CLR 21/19 A2977 RMK AO2 LTG DSNT S AND W
KJSV 231055Z AUTO 15003KT 10SM CLR 21/19 A2972 RMK AO2 P0003
KJSV 231035Z AUTO 15011G16KT 10SM CLR 21/19 A2967 RMK AO2 P0002
KJSV 231015Z AUTO 16004KT 10SM SCT008 SCT017 21/18 A2974 RMK AO2 P0001